Time;durP1;ratioP1;P1;durP2;ratioP2;P2;SDS_P1;SDS_P2;PMS_P1;PMS_P2;Temp;Humidity;BMP_temperature;BMP_pressure;BME280_temperature;BME280_humidity;BME280_pressure;Samples;Min_cycle;Max_cycle;Signal;HPM_P1;HPM_P2
2022/06/04 00:03:18;;;;;;;14.23;9.93;;;11.50;99.90;;;;;;10135701;29;20264;-87
2022/06/04 00:08:21;;;;;;;11.80;10.60;;;11.30;99.90;;;;;;10132629;29;20294;-88
2022/06/04 00:18:44;;;;;;;14.90;11.10;;;11.40;99.90;;;;;;10134739;29;20291;-87
2022/06/04 00:23:50;;;;;;;12.17;10.97;;;11.40;99.90;;;;;;10133477;29;20311;-87
2022/06/04 00:28:53;;;;;;;11.57;10.47;;;11.30;99.90;;;;;;10134102;29;20299;-88
2022/06/04 00:33:56;;;;;;;12.73;11.40;;;11.20;99.90;;;;;;10133553;29;20239;-87
2022/06/04 00:38:59;;;;;;;14.23;11.60;;;11.00;99.90;;;;;;10133292;29;20264;-87
2022/06/04 00:44:13;;;;;;;14.23;12.77;;;10.90;99.90;;;;;;10133223;29;20280;-87
2022/06/04 00:49:20;;;;;;;14.53;12.60;;;10.90;99.90;;;;;;10132024;29;20287;-87
2022/06/04 00:54:23;;;;;;;14.37;12.87;;;10.80;99.90;;;;;;10132386;29;20291;-87
2022/06/04 00:59:39;;;;;;;14.97;13.37;;;10.80;99.90;;;;;;10131664;29;20278;-87
2022/06/04 01:04:52;;;;;;;14.13;12.03;;;10.80;99.90;;;;;;10132217;29;20251;-87
2022/06/04 01:10:23;;;;;;;14.20;12.73;;;11.00;99.90;;;;;;10132448;29;20227;-87
2022/06/04 01:15:34;;;;;;;16.83;11.67;;;10.90;99.90;;;;;;10131895;29;20314;-87
2022/06/04 01:20:49;;;;;;;14.23;12.73;;;10.70;99.90;;;;;;10123790;29;20244;-87
2022/06/04 01:26:09;;;;;;;15.77;13.87;;;10.80;99.90;;;;;;10121419;29;20610;-87
2022/06/04 01:31:19;;;;;;;15.43;13.90;;;10.80;99.90;;;;;;10160293;29;20680;-87
2022/06/04 01:36:27;;;;;;;14.13;12.63;;;10.90;99.90;;;;;;10145726;29;20228;-87
2022/06/04 01:41:35;;;;;;;15.20;12.90;;;10.90;99.90;;;;;;10129673;29;20267;-87
2022/06/04 01:46:48;;;;;;;15.87;13.10;;;10.80;99.90;;;;;;10129579;29;20704;-87
2022/06/04 01:51:54;;;;;;;19.17;12.33;;;10.80;99.90;;;;;;10120725;29;20260;-87
2022/06/04 01:57:17;;;;;;;14.27;12.13;;;11.00;99.90;;;;;;10091128;29;20237;-87
2022/06/04 02:02:26;;;;;;;15.00;12.73;;;10.90;99.90;;;;;;10090989;29;20311;-87
2022/06/04 02:07:35;;;;;;;14.43;12.97;;;10.90;99.90;;;;;;10120707;29;20291;-87
2022/06/04 02:12:40;;;;;;;13.00;11.70;;;10.90;99.90;;;;;;10128247;29;20327;-87
2022/06/04 02:17:47;;;;;;;13.80;12.40;;;10.90;99.90;;;;;;10129359;29;20211;-87
2022/06/04 02:22:54;;;;;;;13.20;11.87;;;11.00;99.90;;;;;;10129922;29;20251;-87
2022/06/04 02:27:58;;;;;;;13.60;12.07;;;11.20;99.90;;;;;;10128576;29;20620;-87
2022/06/04 02:33:15;;;;;;;15.23;12.03;;;11.40;99.90;;;;;;10128060;29;20263;-87
2022/06/04 02:38:45;;;;;;;16.00;11.40;;;11.50;99.90;;;;;;10125911;29;20239;-87
2022/06/04 02:43:54;;;;;;;12.27;11.10;;;11.40;99.90;;;;;;10126721;29;20264;-87
2022/06/04 02:49:05;;;;;;;12.80;11.50;;;11.20;99.90;;;;;;10125597;29;20999;-87
2022/06/04 02:54:25;;;;;;;14.03;12.07;;;11.20;99.90;;;;;;10132016;29;20312;-87
2022/06/04 02:59:29;;;;;;;13.20;11.73;;;11.10;99.90;;;;;;10133825;29;20239;-87
2022/06/04 03:04:51;;;;;;;15.73;12.03;;;11.00;99.90;;;;;;10134489;29;20322;-86
2022/06/04 03:10:01;;;;;;;14.73;12.60;;;11.10;99.90;;;;;;10136965;29;20275;-86
2022/06/04 03:15:04;;;;;;;15.27;12.90;;;11.10;99.90;;;;;;10134447;29;20295;-87
2022/06/04 03:20:07;;;;;;;12.17;10.83;;;11.10;99.90;;;;;;10136277;29;20243;-86
2022/06/04 03:25:10;;;;;;;11.70;10.57;;;11.30;99.90;;;;;;10135405;29;20263;-87
2022/06/04 03:30:14;;;;;;;12.20;10.37;;;11.50;99.90;;;;;;10134198;29;20240;-86
2022/06/04 03:35:17;;;;;;;13.90;11.20;;;11.60;99.90;;;;;;10135064;29;20232;-86
2022/06/04 03:40:20;;;;;;;12.60;11.30;;;11.60;99.90;;;;;;10135420;29;20267;-86
2022/06/04 03:45:26;;;;;;;14.17;11.57;;;11.70;99.90;;;;;;10133868;29;20259;-86
2022/06/04 03:50:29;;;;;;;14.73;12.43;;;11.90;99.90;;;;;;10132667;29;20298;-87
2022/06/04 03:55:32;;;;;;;12.50;11.07;;;12.10;99.90;;;;;;10134226;29;20252;-87
2022/06/04 04:00:40;;;;;;;13.30;11.90;;;12.40;99.90;;;;;;10132616;29;20239;-87
2022/06/04 04:05:48;;;;;;;13.40;11.13;;;12.60;99.90;;;;;;10134211;29;20658;-87
2022/06/04 04:10:51;;;;;;;14.23;12.33;;;13.00;99.90;;;;;;10096155;29;20664;-86
2022/06/04 04:15:56;;;;;;;14.17;10.43;;;13.20;99.90;;;;;;10113909;29;20283;-86
2022/06/04 04:21:04;;;;;;;11.47;10.20;;;13.50;99.90;;;;;;10133238;29;20260;-87
2022/06/04 04:26:09;;;;;;;11.47;10.40;;;13.70;99.90;;;;;;10134212;29;20264;-87
2022/06/04 04:31:14;;;;;;;12.80;10.40;;;13.90;99.90;;;;;;10131939;29;20661;-89
2022/06/04 04:36:17;;;;;;;12.93;10.50;;;14.00;99.90;;;;;;10134232;29;20297;-89
2022/06/04 04:41:19;;;;;;;15.07;10.97;;;14.20;99.90;;;;;;10132799;29;20280;-89
2022/06/04 04:46:22;;;;;;;12.27;10.97;;;14.20;99.90;;;;;;10133297;29;20231;-89
2022/06/04 04:51:26;;;;;;;18.57;10.53;;;14.40;99.90;;;;;;10116612;29;20245;-88
2022/06/04 04:56:29;;;;;;;12.93;10.27;;;14.90;99.90;;;;;;10131841;29;20786;-89
2022/06/04 05:01:31;;;;;;;14.20;11.03;;;15.20;99.90;;;;;;10131709;29;20265;-89
2022/06/04 05:06:34;;;;;;;12.10;10.73;;;15.30;99.90;;;;;;10131274;29;20200;-90
2022/06/04 05:11:37;;;;;;;10.73;9.00;;;15.50;99.90;;;;;;10132590;29;20244;-89
2022/06/04 05:16:40;;;;;;;10.70;9.60;;;15.80;99.90;;;;;;10145732;29;20236;-89
2022/06/04 05:21:48;;;;;;;11.53;9.90;;;15.80;99.90;;;;;;10132970;29;20821;-89
2022/06/04 05:26:51;;;;;;;11.37;9.13;;;15.90;99.90;;;;;;10132429;29;20235;-89
2022/06/04 05:31:53;;;;;;;9.40;8.50;;;16.00;99.90;;;;;;10130186;29;20777;-89
2022/06/04 05:36:56;;;;;;;10.30;9.30;;;16.10;99.90;;;;;;10130067;29;20212;-89
2022/06/04 05:41:59;;;;;;;11.43;9.63;;;16.40;99.90;;;;;;10131353;29;20271;-89
2022/06/04 05:47:04;;;;;;;15.43;9.67;;;16.70;99.90;;;;;;10131426;29;20229;-89
2022/06/04 05:52:07;;;;;;;9.87;8.90;;;16.90;99.90;;;;;;10130445;29;20633;-89
2022/06/04 05:57:09;;;;;;;10.50;8.57;;;17.10;99.90;;;;;;10130420;29;20272;-89
2022/06/04 06:02:12;;;;;;;12.13;9.10;;;17.40;99.90;;;;;;10129243;29;20367;-90
2022/06/04 06:07:14;;;;;;;8.60;7.80;;;17.80;99.90;;;;;;10129569;29;20236;-90
2022/06/04 06:12:17;;;;;;;5.70;5.30;;;18.20;99.90;;;;;;10129813;29;20238;-90
2022/06/04 06:17:19;;;;;;;12.00;8.13;;;18.40;99.90;;;;;;10128986;29;20247;-89
2022/06/04 06:22:22;;;;;;;8.57;7.67;;;18.50;99.90;;;;;;10119915;29;20286;-89
2022/06/04 06:27:25;;;;;;;11.33;7.17;;;18.70;99.90;;;;;;10129231;29;20236;-90
2022/06/04 06:32:28;;;;;;;7.07;6.47;;;19.00;99.90;;;;;;10130292;29;20749;-89
2022/06/04 06:37:30;;;;;;;6.63;6.10;;;19.30;99.90;;;;;;10128809;29;20275;-87
2022/06/04 06:42:33;;;;;;;10.63;7.93;;;19.50;99.90;;;;;;10128110;29;20271;-88
2022/06/04 06:47:43;;;;;;;6.00;5.37;;;19.70;99.90;;;;;;10112706;29;20636;-89
2022/06/04 06:52:45;;;;;;;12.37;6.80;;;19.90;99.90;;;;;;10112028;29;20239;-89
2022/06/04 06:57:48;;;;;;;6.27;5.77;;;20.00;99.90;;;;;;10128805;29;20239;-88
2022/06/04 07:02:50;;;;;;;4.90;4.50;;;20.30;99.90;;;;;;10126954;29;20311;-88
2022/06/04 07:07:53;;;;;;;5.57;5.17;;;20.40;99.90;;;;;;10127157;29;20232;-87
2022/06/04 07:12:56;;;;;;;6.43;5.93;;;20.10;99.90;;;;;;10127981;29;20276;-88
2022/06/04 07:17:58;;;;;;;6.03;5.43;;;20.30;99.90;;;;;;10127991;29;20629;-88
2022/06/04 07:23:04;;;;;;;5.97;5.37;;;20.80;99.90;;;;;;10129232;29;20656;-88
2022/06/04 07:28:07;;;;;;;5.90;5.40;;;20.90;99.90;;;;;;10130892;29;20202;-88
2022/06/04 07:33:10;;;;;;;6.47;5.90;;;20.70;99.90;;;;;;10131392;29;20607;-88
2022/06/04 07:38:12;;;;;;;6.73;6.13;;;20.50;99.70;;;;;;10134057;29;20636;-89
2022/06/04 07:43:15;;;;;;;6.00;5.50;;;20.30;99.70;;;;;;10138530;29;20268;-88
2022/06/04 07:48:17;;;;;;;7.03;6.43;;;20.80;99.90;;;;;;10136964;29;20201;-88
2022/06/04 07:53:21;;;;;;;7.40;6.80;;;20.70;98.20;;;;;;10136681;29;20235;-88
2022/06/04 07:58:24;;;;;;;7.13;6.63;;;20.90;97.70;;;;;;10135336;29;20212;-88
2022/06/04 08:03:26;;;;;;;8.63;5.20;;;21.00;97.10;;;;;;10138936;29;20647;-88
2022/06/04 08:08:30;;;;;;;6.10;5.53;;;20.90;97.60;;;;;;10151533;29;20338;-88
2022/06/04 08:13:32;;;;;;;7.40;6.80;;;20.90;98.40;;;;;;10132715;29;20240;-88
2022/06/04 08:18:35;;;;;;;8.63;7.93;;;20.90;96.70;;;;;;10140055;29;20204;-89
2022/06/04 08:23:40;;;;;;;7.73;7.03;;;20.90;96.30;;;;;;10153153;29;20649;-89
2022/06/04 08:28:43;;;;;;;9.37;8.57;;;21.10;97.10;;;;;;10144359;29;20217;-88
2022/06/04 08:33:45;;;;;;;8.57;7.87;;;21.20;95.90;;;;;;10143168;29;20208;-88
2022/06/04 08:38:48;;;;;;;8.87;8.13;;;20.60;96.10;;;;;;10146877;29;20205;-88
2022/06/04 08:44:02;;;;;;;8.30;7.50;;;20.40;96.50;;;;;;10150568;29;20233;-88
2022/06/04 08:49:17;;;;;;;8.97;8.23;;;20.60;96.40;;;;;;10138304;29;20626;-88
2022/06/04 08:59:46;;;;;;;8.60;7.90;;;20.80;95.70;;;;;;10145550;29;20228;-88
2022/06/04 09:05:04;;;;;;;7.60;6.90;;;20.90;96.50;;;;;;10166208;29;20248;-92
2022/06/04 09:10:12;;;;;;;6.87;6.17;;;;;;;;;;10184291;29;20200;-92
2022/06/04 09:15:19;;;;;;;6.32;5.60;;;21.90;98.10;;;;;;10184805;29;20188;-91
2022/06/04 09:20:27;;;;;;;6.80;6.10;;;;;;;;;;10184229;29;20818;-87
2022/06/04 09:25:45;;;;;;;18.87;8.10;;;22.80;97.20;;;;;;10167750;29;20252;-87
2022/06/04 09:31:08;;;;;;;18.10;8.52;;;23.10;96.90;;;;;;10182443;29;20224;-87
2022/06/04 09:36:14;;;;;;;7.20;4.97;;;22.80;94.60;;;;;;10184433;29;20188;-94
2022/06/04 09:41:21;;;;;;;8.45;6.07;;;22.70;94.90;;;;;;10182982;29;20252;-95
2022/06/04 09:46:24;;;;;;;162.30;32.15;;;22.70;94.90;;;;;;10185702;29;20236;-95
2022/06/04 09:51:42;;;;;;;45.88;13.10;;;22.70;95.90;;;;;;10183111;29;20224;-95
2022/06/04 09:56:51;;;;;;;10.75;6.78;;;22.60;95.50;;;;;;10184513;29;20188;-95
2022/06/04 10:02:09;;;;;;;44.10;13.85;;;22.50;97.10;;;;;;10183319;29;20217;-92
2022/06/04 10:07:16;;;;;;;101.93;24.38;;;23.20;98.60;;;;;;10183462;29;20180;-94
2022/06/04 10:12:21;;;;;;;361.73;94.03;;;23.00;98.60;;;;;;10181341;29;20191;-93
2022/06/04 10:17:37;;;;;;;124.93;30.55;;;22.80;97.60;;;;;;10183204;29;20240;-94
2022/06/04 10:22:48;;;;;;;18.88;6.95;;;22.90;96.70;;;;;;10183052;29;20240;-94
2022/06/04 10:28:18;;;;;;;6.35;5.60;;;23.10;95.20;;;;;;10144497;29;20290;-95
2022/06/04 10:33:52;;;;;;;62.13;17.25;;;24.30;93.50;;;;;;10125491;29;20209;-95
2022/06/04 10:39:14;;;;;;;43.03;11.27;;;24.20;92.60;;;;;;10144060;29;20204;-95
2022/06/04 10:44:22;;;;;;;8.77;5.60;;;24.40;90.10;;;;;;10141765;29;20266;-95
2022/06/04 10:49:54;;;;;;;8.52;5.30;;;24.20;87.20;;;;;;10141099;29;20256;-96
2022/06/04 10:55:21;;;;;;;5.18;4.65;;;24.20;88.70;;;;;;10144943;29;20212;-95
2022/06/04 11:00:38;;;;;;;7.78;5.03;;;24.50;89.10;;;;;;10144875;29;20196;-95
2022/06/04 11:05:52;;;;;;;6.05;4.70;;;24.20;85.50;;;;;;10142311;29;20227;-95
2022/06/04 11:11:05;;;;;;;5.90;5.40;;;24.00;84.60;;;;;;10141676;29;20279;-95
2022/06/04 11:16:15;;;;;;;23.80;5.25;;;24.10;87.00;;;;;;10148026;29;20205;-95
2022/06/04 11:21:23;;;;;;;6.28;5.57;;;24.10;85.50;;;;;;10145895;29;20236;-95
2022/06/04 11:26:45;;;;;;;29.38;7.25;;;23.70;87.20;;;;;;10121786;29;20225;-96
2022/06/04 11:32:10;;;;;;;8.88;5.32;;;23.70;87.40;;;;;;10141776;29;20269;-96
2022/06/04 11:37:16;;;;;;;8.38;4.93;;;23.70;88.30;;;;;;10143628;29;20624;-95
2022/06/04 11:42:41;;;;;;;5.60;5.10;;;24.20;84.90;;;;;;10147984;29;20600;-95
2022/06/04 11:48:03;;;;;;;4.38;3.97;;;;;;;;;;10146182;29;20208;-93
2022/06/04 11:53:36;;;;;;;4.82;4.43;;;25.20;76.30;;;;;;10146822;29;20196;-94
2022/06/04 11:59:01;;;;;;;4.30;3.95;;;25.10;76.30;;;;;;10141073;29;20200;-92
2022/06/04 12:04:13;;;;;;;4.63;4.22;;;24.70;71.70;;;;;;10139525;29;20219;-96
2022/06/04 12:09:29;;;;;;;5.70;4.50;;;24.50;73.60;;;;;;10137187;29;20208;-95
2022/06/04 12:14:57;;;;;;;6.45;4.53;;;23.90;76.20;;;;;;10136089;29;20291;-92
2022/06/04 12:25:46;;;;;;;4.97;4.30;;;23.60;77.40;;;;;;10133485;29;20660;-91
2022/06/04 12:30:49;;;;;;;8.88;8.07;;;23.10;75.60;;;;;;10133653;29;20244;-91
2022/06/04 12:36:23;;;;;;;11.63;9.43;;;22.70;81.30;;;;;;10133174;29;20306;-92
2022/06/04 12:41:38;;;;;;;6.13;5.47;;;22.60;81.80;;;;;;10133146;29;20316;-90
2022/06/04 12:46:41;;;;;;;9.90;7.43;;;22.40;78.50;;;;;;10133359;29;20259;-91
2022/06/04 12:52:25;;;;;;;12.95;9.80;;;23.20;78.50;;;;;;10131307;29;20236;-91
2022/06/04 12:57:40;;;;;;;11.90;10.80;;;22.80;81.50;;;;;;10108869;29;20247;-91
2022/06/04 13:03:06;;;;;;;11.95;10.45;;;22.70;82.20;;;;;;10131554;29;20223;-91
2022/06/04 13:08:38;;;;;;;13.25;12.00;;;22.40;84.20;;;;;;10131250;29;20834;-92
2022/06/04 13:13:41;;;;;;;13.43;12.18;;;23.10;81.60;;;;;;10129628;29;20260;-91
2022/06/04 13:18:55;;;;;;;14.25;12.90;;;22.50;83.40;;;;;;10132073;29;20235;-91
2022/06/04 13:24:01;;;;;;;7.18;5.45;;;22.20;84.70;;;;;;10113652;29;20303;-91
2022/06/04 13:29:25;;;;;;;11.55;9.00;;;22.30;82.00;;;;;;10130389;29;20619;-91
2022/06/04 13:34:33;;;;;;;14.18;12.68;;;22.90;83.40;;;;;;10129465;29;20295;-91
2022/06/04 13:39:36;;;;;;;14.75;13.32;;;22.40;84.40;;;;;;10127263;29;20714;-91
2022/06/04 13:44:42;;;;;;;14.35;12.95;;;22.10;85.80;;;;;;10131211;29;20263;-90
2022/06/04 13:50:08;;;;;;;16.52;14.93;;;22.00;86.40;;;;;;10131172;29;20236;-93
2022/06/04 13:55:29;;;;;;;15.63;14.00;;;22.10;86.50;;;;;;10127369;29;20765;-92
2022/06/04 14:00:33;;;;;;;15.80;14.20;;;21.90;87.20;;;;;;10129067;29;20264;-93
2022/06/04 14:05:46;;;;;;;16.42;14.75;;;21.90;87.40;;;;;;10129177;29;20695;-93
2022/06/04 14:11:02;;;;;;;8.85;8.05;;;21.90;87.80;;;;;;10091374;29;20304;-92
2022/06/04 14:16:37;;;;;;;18.48;9.05;;;22.10;82.20;;;;;;10123466;29;20596;-92
2022/06/04 14:22:13;;;;;;;16.05;14.45;;;22.10;84.90;;;;;;10131761;29;20741;-92
2022/06/04 14:27:46;;;;;;;15.27;13.68;;;22.40;85.30;;;;;;10129910;29;20244;-91
2022/06/04 14:32:52;;;;;;;16.42;14.93;;;22.40;85.50;;;;;;10128551;29;20244;-91
2022/06/04 14:38:04;;;;;;;16.45;14.85;;;22.20;85.80;;;;;;10129787;29;20252;-92
2022/06/04 14:43:29;;;;;;;15.57;13.90;;;22.00;86.90;;;;;;10128791;29;20259;-89
2022/06/04 14:49:00;;;;;;;15.57;14.00;;;22.20;79.70;;;;;;10134394;29;20279;-89
2022/06/04 14:54:05;;;;;;;15.73;14.18;;;22.50;84.60;;;;;;10136863;29;20299;-89
2022/06/04 14:59:11;;;;;;;5.88;5.10;;;22.30;84.90;;;;;;10151465;29;20232;-89
2022/06/04 15:04:58;;;;;;;14.90;13.55;;;22.60;78.70;;;;;;10136971;29;20247;-89
2022/06/04 15:10:24;;;;;;;17.40;10.80;;;22.60;83.30;;;;;;10128394;29;20287;-90
2022/06/04 15:15:53;;;;;;;14.98;11.43;;;22.70;82.30;;;;;;10136067;29;20338;-90
2022/06/04 15:21:11;;;;;;;11.43;9.95;;;22.40;91.90;;;;;;10135223;29;20236;-90
2022/06/04 15:26:27;;;;;;;6.82;6.18;;;22.30;91.20;;;;;;10135272;29;20713;-90
2022/06/04 15:37:40;;;;;;;5.78;5.28;;;22.10;87.80;;;;;;10136726;29;20223;-90
2022/06/04 15:43:19;;;;;;;9.77;8.73;;;22.20;89.20;;;;;;10128621;29;20634;-90
2022/06/04 15:48:28;;;;;;;6.78;6.10;;;22.40;90.10;;;;;;10100855;29;20773;-90
2022/06/04 15:59:15;;;;;;;9.05;6.07;;;22.10;89.40;;;;;;10132469;29;20673;-89
2022/06/04 16:04:22;;;;;;;10.85;5.93;;;23.00;84.50;;;;;;10130805;29;20244;-90
2022/06/04 16:09:28;;;;;;;8.73;7.07;;;23.30;82.10;;;;;;10130604;29;20268;-89
2022/06/04 16:14:59;;;;;;;7.05;6.03;;;23.20;83.60;;;;;;10211524;23;20295;-80
2022/06/04 16:20:28;;;;;;;6.47;5.63;;;22.90;80.80;;;;;;10193060;29;20757;-82
2022/06/04 16:25:56;;;;;;;8.38;5.95;;;22.90;84.80;;;;;;10210603;29;20688;-83
2022/06/04 16:31:02;;;;;;;8.30;5.78;;;22.90;81.50;;;;;;10213448;29;20278;-81
2022/06/04 16:36:06;;;;;;;11.05;9.95;;;22.70;87.60;;;;;;10211705;29;20227;-82
2022/06/04 16:46:37;;;;;;;12.50;11.38;;;22.00;89.30;;;;;;10210909;29;20263;-83
2022/06/04 16:51:40;;;;;;;13.65;12.00;;;21.60;90.50;;;;;;9869369;29;10000169;-81
2022/06/04 16:56:43;;;;;;;15.55;12.48;;;21.40;91.10;;;;;;10215412;29;20684;-83
2022/06/04 17:01:58;;;;;;;13.02;11.75;;;21.30;91.50;;;;;;10218493;29;20321;-80
2022/06/04 17:07:28;;;;;;;14.63;13.18;;;21.30;91.80;;;;;;10220176;29;20328;-81
2022/06/04 17:12:49;;;;;;;13.93;12.63;;;21.10;92.10;;;;;;10204183;29;20291;-81
2022/06/04 17:18:00;;;;;;;16.50;8.43;;;21.00;92.50;;;;;;10207436;29;20283;-82
2022/06/04 17:23:15;;;;;;;17.83;9.07;;;20.90;94.60;;;;;;10167337;29;20243;-82
2022/06/04 17:28:33;;;;;;;16.92;8.57;;;21.10;93.70;;;;;;10166850;29;20263;-82
2022/06/04 17:33:54;;;;;;;13.93;10.25;;;21.50;91.90;;;;;;10165717;29;20243;-82
2022/06/04 17:39:09;;;;;;;15.23;10.52;;;21.20;93.10;;;;;;10165968;29;20238;-82
2022/06/04 17:44:12;;;;;;;8.77;7.65;;;20.80;94.10;;;;;;10164215;29;20259;-82
2022/06/04 17:49:16;;;;;;;10.95;9.85;;;20.70;95.10;;;;;;10181130;29;20227;-82
2022/06/04 17:54:20;;;;;;;11.25;9.55;;;20.70;94.60;;;;;;10194336;29;20246;-82
2022/06/04 17:59:23;;;;;;;11.65;10.45;;;20.60;94.80;;;;;;10203540;29;20314;-81
2022/06/04 18:04:26;;;;;;;26.13;8.48;;;20.70;94.80;;;;;;10204668;29;20368;-84
2022/06/04 18:09:28;;;;;;;22.63;7.95;;;20.60;95.20;;;;;;10201588;29;20239;-80
2022/06/04 18:14:31;;;;;;;31.45;9.02;;;20.80;95.50;;;;;;10218950;29;20321;-82
2022/06/04 18:19:34;;;;;;;30.42;9.05;;;20.80;96.20;;;;;;10220620;29;20230;-81
2022/06/04 18:24:39;;;;;;;13.50;7.85;;;20.80;96.80;;;;;;10205892;29;20298;-81
2022/06/04 18:29:42;;;;;;;8.05;7.35;;;20.90;95.70;;;;;;10203796;29;20293;-82
2022/06/04 18:34:45;;;;;;;22.58;9.68;;;20.80;95.10;;;;;;10204763;29;20393;-82
2022/06/04 18:39:47;;;;;;;17.95;7.93;;;20.70;96.60;;;;;;10204292;29;20694;-81
2022/06/04 18:55:33;;;;;;;22.95;9.25;;;20.40;98.80;;;;;;10190906;29;20317;-81
2022/06/04 19:00:37;;;;;;;17.33;12.38;;;20.40;99.90;;;;;;10197066;29;20280;-81
2022/06/04 19:05:43;;;;;;;16.30;10.38;;;20.30;99.00;;;;;;10202540;29;20705;-81
2022/06/04 19:16:29;;;;;;;17.42;10.95;;;20.20;99.90;;;;;;10199267;29;20234;-80
2022/06/04 19:26:55;;;;;;;10.80;5.63;;;16.00;99.90;;;;;;10164490;29;20244;-83
2022/06/04 19:31:57;;;;;;;8.57;7.40;;;14.10;99.90;;;;;;10214579;23;20645;-86
2022/06/04 19:37:00;;;;;;;17.90;9.53;;;14.60;99.90;;;;;;10202003;29;20557;-87
2022/06/04 19:42:04;;;;;;;15.50;11.13;;;16.20;99.90;;;;;;10197372;29;20553;-87
2022/06/04 19:47:10;;;;;;;16.17;8.20;;;15.50;99.90;;;;;;10202565;29;20235;-86
2022/06/04 19:52:17;;;;;;;16.17;9.47;;;16.10;99.90;;;;;;10217539;29;20556;-87
2022/06/04 19:57:19;;;;;;;19.27;10.20;;;15.80;99.90;;;;;;10193602;29;20275;-87
2022/06/04 20:02:22;;;;;;;13.70;10.33;;;15.60;99.90;;;;;;10208742;29;20200;-87
2022/06/04 20:07:27;;;;;;;13.33;8.53;;;16.80;99.90;;;;;;10177787;29;20219;-87
2022/06/04 20:12:30;;;;;;;11.23;9.03;;;16.40;99.90;;;;;;10177301;29;20208;-87
2022/06/04 20:17:33;;;;;;;8.13;7.27;;;16.00;99.90;;;;;;10196466;29;20342;-87
2022/06/04 20:22:35;;;;;;;11.07;6.73;;;16.50;99.90;;;;;;10213365;29;20203;-86
2022/06/04 20:27:38;;;;;;;6.60;6.00;;;16.20;99.90;;;;;;10215140;29;20606;-87
2022/06/04 20:32:41;;;;;;;10.00;6.63;;;19.10;99.90;;;;;;10215842;29;20243;-86
2022/06/04 20:37:44;;;;;;;7.00;6.40;;;17.60;99.90;;;;;;10215019;29;20214;-87
2022/06/04 20:42:47;;;;;;;7.43;6.73;;;19.00;99.90;;;;;;10215628;29;20282;-86
2022/06/04 20:47:50;;;;;;;6.10;5.53;;;18.30;99.90;;;;;;10203676;29;20231;-85
2022/06/04 20:52:52;;;;;;;6.23;5.63;;;17.20;99.90;;;;;;10177328;29;20196;-85
2022/06/04 20:57:56;;;;;;;8.00;6.83;;;18.10;99.90;;;;;;10207050;29;20255;-85
2022/06/04 21:03:00;;;;;;;7.63;6.87;;;17.80;99.90;;;;;;10189043;29;20263;-85
2022/06/04 21:08:04;;;;;;;8.03;7.23;;;17.70;99.90;;;;;;10199121;29;20215;-85
2022/06/04 21:13:07;;;;;;;10.77;6.87;;;18.30;99.90;;;;;;10215626;29;20207;-85
2022/06/04 21:18:09;;;;;;;16.70;10.60;;;18.10;99.90;;;;;;10191263;29;20199;-85
2022/06/04 21:23:12;;;;;;;10.60;7.73;;;17.60;99.90;;;;;;10217889;29;20206;-85
2022/06/04 21:28:15;;;;;;;6.57;5.90;;;17.20;99.90;;;;;;10216011;29;20226;-85
2022/06/04 21:33:18;;;;;;;10.57;8.53;;;17.30;99.90;;;;;;10228853;29;20199;-85
2022/06/04 21:38:21;;;;;;;16.07;9.93;;;17.40;99.90;;;;;;10176162;29;20215;-85
2022/06/04 21:43:24;;;;;;;8.17;7.37;;;17.40;99.90;;;;;;10201586;29;20215;-85
2022/06/04 21:48:27;;;;;;;7.90;7.10;;;17.80;99.90;;;;;;10216507;29;20226;-86
2022/06/04 21:53:30;;;;;;;8.63;6.10;;;17.20;99.90;;;;;;10195902;29;20666;-85
2022/06/04 21:58:33;;;;;;;6.90;6.00;;;16.60;99.90;;;;;;10204256;28;20585;-86
2022/06/04 22:03:39;;;;;;;8.27;6.37;;;16.10;99.90;;;;;;10208710;29;20207;-85
2022/06/04 22:08:42;;;;;;;6.17;5.57;;;15.80;99.90;;;;;;10210491;29;20227;-85
2022/06/04 22:13:48;;;;;;;8.20;6.23;;;16.90;99.90;;;;;;10208183;29;20203;-85
2022/06/04 22:18:51;;;;;;;5.90;5.40;;;16.10;99.90;;;;;;10194340;29;20579;-86
2022/06/04 22:23:54;;;;;;;5.87;5.27;;;15.20;99.90;;;;;;10212998;29;20191;-87
2022/06/04 22:28:58;;;;;;;6.03;5.43;;;16.00;99.90;;;;;;10211225;29;20230;-86
2022/06/04 22:34:02;;;;;;;11.97;9.77;;;16.00;99.90;;;;;;10211991;29;20551;-86
2022/06/04 22:39:05;;;;;;;12.53;10.27;;;14.70;99.90;;;;;;10207606;29;20235;-86
2022/06/04 22:44:07;;;;;;;12.43;11.13;;;15.00;99.90;;;;;;10209670;29;20682;-86
2022/06/04 22:49:10;;;;;;;14.17;10.67;;;16.60;99.90;;;;;;10211037;29;20305;-86
2022/06/04 22:54:19;;;;;;;14.83;12.53;;;14.90;99.90;;;;;;10211135;29;20231;-86
2022/06/04 22:59:22;;;;;;;15.10;11.93;;;14.80;99.90;;;;;;10171274;29;20621;-86
2022/06/04 23:04:28;;;;;;;13.67;12.07;;;16.30;99.90;;;;;;10207963;29;20207;-86
2022/06/04 23:25:43;;;;;;;17.60;13.93;;;16.40;99.90;;;;;;10218749;29;20246;-86
2022/06/04 23:30:46;;;;;;;20.00;15.13;;;15.40;99.90;;;;;;10217779;29;20286;-86
2022/06/04 23:35:49;;;;;;;19.20;15.20;;;14.20;99.90;;;;;;10216994;29;20262;-86
2022/06/04 23:40:53;;;;;;;16.07;13.03;;;15.40;99.90;;;;;;10218963;29;20591;-86
2022/06/04 23:45:57;;;;;;;16.67;12.50;;;13.90;99.90;;;;;;10217056;29;20227;-86
2022/06/04 23:51:00;;;;;;;18.37;13.43;;;14.30;99.90;;;;;;10201363;29;20198;-86
2022/06/04 23:56:06;;;;;;;18.33;13.27;;;13.70;99.90;;;;;;10217049;29;20207;-86
